sensor_id;sensor_type;location;lat;lon;timestamp;noise_LAeq;noise_LA_min;noise_LA_max;noise_LA01;noise_LA95
79288;Laerm;68737;53.946;27.634;2024-03-02T00:00:41;47.319260;41.698944;60.684784;;
79288;Laerm;68737;53.946;27.634;2024-03-02T00:03:11;45.777397;40.539017;56.584991;;
79288;Laerm;68737;53.946;27.634;2024-03-02T00:05:41;45.694695;40.305748;57.586609;;
79288;Laerm;68737;53.946;27.634;2024-03-02T00:08:11;46.295982;40.507515;58.963806;;
79288;Laerm;68737;53.946;27.634;2024-03-02T00:10:41;46.592567;41.251968;56.929314;;
79288;Laerm;68737;53.946;27.634;2024-03-02T00:13:11;44.937943;40.849541;55.737335;;
79288;Laerm;68737;53.946;27.634;2024-03-02T00:15:43;45.189026;40.784515;52.563232;;
79288;Laerm;68737;53.946;27.634;2024-03-02T00:18:12;44.080780;41.096626;50.636635;;
79288;Laerm;68737;53.946;27.634;2024-03-02T00:20:41;45.178596;39.701904;56.947075;;
79288;Laerm;68737;53.946;27.634;2024-03-02T00:23:14;43.813652;40.708405;48.595490;;
79288;Laerm;68737;53.946;27.634;2024-03-02T00:30:46;46.915985;40.456238;61.336311;;
79288;Laerm;68737;53.946;27.634;2024-03-02T00:33:11;45.032494;39.995728;54.462509;;
79288;Laerm;68737;53.946;27.634;2024-03-02T00:35:44;47.191078;40.896278;56.781662;;
79288;Laerm;68737;53.946;27.634;2024-03-02T00:38:11;43.555237;40.029808;50.589996;;
79288;Laerm;68737;53.946;27.634;2024-03-02T00:40:42;43.179932;39.443604;50.096451;;
79288;Laerm;68737;53.946;27.634;2024-03-02T00:45:41;45.111862;39.282211;60.151451;;
79288;Laerm;68737;53.946;27.634;2024-03-02T00:48:12;47.863510;40.578461;61.400249;;
79288;Laerm;68737;53.946;27.634;2024-03-02T00:50:41;45.780128;41.084076;56.222878;;
79288;Laerm;68737;53.946;27.634;2024-03-02T00:53:11;45.233086;41.604141;50.593872;;
79288;Laerm;68737;53.946;27.634;2024-03-02T00:55:41;48.714867;42.438492;55.325119;;
79288;Laerm;68737;53.946;27.634;2024-03-02T00:58:11;49.259537;44.996025;54.552551;;
79288;Laerm;68737;53.946;27.634;2024-03-02T01:00:41;51.892395;47.272797;56.561409;;
79288;Laerm;68737;53.946;27.634;2024-03-02T01:03:11;50.565109;46.748230;55.117538;;
79288;Laerm;68737;53.946;27.634;2024-03-02T01:05:41;47.329346;42.854462;57.050095;;
79288;Laerm;68737;53.946;27.634;2024-03-02T01:08:11;47.621040;42.198158;57.432655;;
79288;Laerm;68737;53.946;27.634;2024-03-02T01:10:41;48.494926;42.758881;57.270569;;
79288;Laerm;68737;53.946;27.634;2024-03-02T01:13:11;47.331825;41.384178;58.907181;;
79288;Laerm;68737;53.946;27.634;2024-03-02T01:15:41;46.622360;40.870216;59.216526;;
79288;Laerm;68737;53.946;27.634;2024-03-02T01:18:11;45.779922;40.686470;56.328453;;
79288;Laerm;68737;53.946;27.634;2024-03-02T01:20:41;42.954849;38.838531;51.229843;;
79288;Laerm;68737;53.946;27.634;2024-03-02T01:23:11;46.304359;40.028793;59.870598;;
79288;Laerm;68737;53.946;27.634;2024-03-02T01:25:41;47.042458;39.946594;59.691914;;
79288;Laerm;68737;53.946;27.634;2024-03-02T01:28:11;44.148590;40.312401;51.412308;;
79288;Laerm;68737;53.946;27.634;2024-03-02T01:30:41;47.225731;41.196671;58.097015;;
79288;Laerm;68737;53.946;27.634;2024-03-02T01:33:11;48.081192;42.786079;57.530853;;
79288;Laerm;68737;53.946;27.634;2024-03-02T01:35:41;48.759674;43.526970;57.159210;;
79288;Laerm;68737;53.946;27.634;2024-03-02T01:38:11;46.205048;42.704674;50.542572;;
79288;Laerm;68737;53.946;27.634;2024-03-02T01:40:41;50.291939;43.084908;63.650978;;
79288;Laerm;68737;53.946;27.634;2024-03-02T01:43:11;46.612564;42.660301;53.971359;;
79288;Laerm;68737;53.946;27.634;2024-03-02T01:45:41;46.034805;41.594147;57.602882;;
79288;Laerm;68737;53.946;27.634;2024-03-02T01:48:11;47.548775;41.508972;56.282814;;
79288;Laerm;68737;53.946;27.634;2024-03-02T01:50:41;45.226768;40.074585;53.607559;;
79288;Laerm;68737;53.946;27.634;2024-03-02T01:53:11;44.574028;39.878036;57.516228;;
79288;Laerm;68737;53.946;27.634;2024-03-02T01:55:41;43.822754;39.946808;52.908730;;
79288;Laerm;68737;53.946;27.634;2024-03-02T01:58:11;46.001907;41.604309;57.200287;;
79288;Laerm;68737;53.946;27.634;2024-03-02T02:00:41;45.155167;41.421417;55.500526;;
79288;Laerm;68737;53.946;27.634;2024-03-02T02:03:11;47.733215;42.170799;58.428802;;
79288;Laerm;68737;53.946;27.634;2024-03-02T02:08:11;48.018524;40.700233;60.838165;;
79288;Laerm;68737;53.946;27.634;2024-03-02T02:10:41;45.669815;40.575363;56.303047;;
79288;Laerm;68737;53.946;27.634;2024-03-02T02:13:11;44.334167;40.091896;55.251358;;
79288;Laerm;68737;53.946;27.634;2024-03-02T02:15:41;45.474792;40.261200;57.507957;;
79288;Laerm;68737;53.946;27.634;2024-03-02T02:18:11;46.137108;41.321304;53.265671;;
79288;Laerm;68737;53.946;27.634;2024-03-02T02:20:41;45.420509;41.327713;53.676033;;
79288;Laerm;68737;53.946;27.634;2024-03-02T02:23:11;46.483986;40.648811;57.072357;;
79288;Laerm;68737;53.946;27.634;2024-03-02T02:25:41;46.220406;41.578148;56.331589;;
79288;Laerm;68737;53.946;27.634;2024-03-02T02:28:11;44.637527;40.978333;51.494507;;
79288;Laerm;68737;53.946;27.634;2024-03-02T02:30:41;47.367363;42.636749;55.670181;;
79288;Laerm;68737;53.946;27.634;2024-03-02T02:33:11;47.077225;42.169930;58.227440;;
79288;Laerm;68737;53.946;27.634;2024-03-02T02:35:41;48.903793;44.669754;52.725464;;
79288;Laerm;68737;53.946;27.634;2024-03-02T02:38:11;52.452599;47.460892;58.278839;;
79288;Laerm;68737;53.946;27.634;2024-03-02T02:40:41;50.998672;44.680130;56.707924;;
79288;Laerm;68737;53.946;27.634;2024-03-02T02:43:11;51.300186;46.101501;61.719719;;
79288;Laerm;68737;53.946;27.634;2024-03-02T02:45:41;47.976807;43.395554;56.116623;;
79288;Laerm;68737;53.946;27.634;2024-03-02T02:48:11;47.336960;41.601349;57.735344;;
79288;Laerm;68737;53.946;27.634;2024-03-02T02:50:41;48.252487;43.154816;54.476173;;
79288;Laerm;68737;53.946;27.634;2024-03-02T02:53:11;48.608719;42.132912;54.573135;;
79288;Laerm;68737;53.946;27.634;2024-03-02T02:55:41;47.488976;42.257004;57.407074;;
79288;Laerm;68737;53.946;27.634;2024-03-02T02:58:13;47.094673;42.978676;57.918777;;
79288;Laerm;68737;53.946;27.634;2024-03-02T03:00:41;50.880928;43.652000;62.724697;;
79288;Laerm;68737;53.946;27.634;2024-03-02T03:03:11;48.210091;42.379761;62.068260;;
79288;Laerm;68737;53.946;27.634;2024-03-02T03:05:41;47.475822;42.285858;55.284790;;
79288;Laerm;68737;53.946;27.634;2024-03-02T03:08:11;50.359612;43.766464;61.585297;;
79288;Laerm;68737;53.946;27.634;2024-03-02T03:10:41;49.046890;42.370987;61.882225;;
79288;Laerm;68737;53.946;27.634;2024-03-02T03:13:11;49.249916;42.788734;62.741508;;
79288;Laerm;68737;53.946;27.634;2024-03-02T03:15:41;50.278526;43.055290;60.820198;;
79288;Laerm;68737;53.946;27.634;2024-03-02T03:18:11;47.846642;41.799324;58.653351;;
79288;Laerm;68737;53.946;27.634;2024-03-02T03:20:41;50.667099;42.893768;65.567490;;
79288;Laerm;68737;53.946;27.634;2024-03-02T03:23:11;49.335182;43.365837;59.238152;;
79288;Laerm;68737;53.946;27.634;2024-03-02T03:25:41;50.009361;43.859215;57.907257;;
79288;Laerm;68737;53.946;27.634;2024-03-02T03:28:11;49.851868;43.589554;65.661743;;
79288;Laerm;68737;53.946;27.634;2024-03-02T03:30:41;49.897446;43.747604;60.965088;;
79288;Laerm;68737;53.946;27.634;2024-03-02T03:33:11;49.643044;43.817673;58.933929;;
79288;Laerm;68737;53.946;27.634;2024-03-02T03:35:41;49.547829;43.689865;58.350060;;
79288;Laerm;68737;53.946;27.634;2024-03-02T03:38:11;49.225151;43.358719;58.084030;;
79288;Laerm;68737;53.946;27.634;2024-03-02T03:40:41;50.404396;44.088158;61.544380;;
79288;Laerm;68737;53.946;27.634;2024-03-02T03:43:11;50.508247;44.340744;59.606033;;
79288;Laerm;68737;53.946;27.634;2024-03-02T03:45:41;50.289192;45.098183;57.728683;;
79288;Laerm;68737;53.946;27.634;2024-03-02T03:48:11;52.164200;46.255867;65.287804;;
79288;Laerm;68737;53.946;27.634;2024-03-02T03:50:41;51.903885;44.620461;60.338139;;
79288;Laerm;68737;53.946;27.634;2024-03-02T03:53:11;53.299057;47.176888;62.128998;;
79288;Laerm;68737;53.946;27.634;2024-03-02T03:55:41;52.853622;46.517006;63.307335;;
79288;Laerm;68737;53.946;27.634;2024-03-02T03:58:11;52.069046;47.153908;59.893543;;
79288;Laerm;68737;53.946;27.634;2024-03-02T04:00:41;50.829498;44.658524;72.512512;;
79288;Laerm;68737;53.946;27.634;2024-03-02T04:03:11;50.907799;45.227974;62.743465;;
79288;Laerm;68737;53.946;27.634;2024-03-02T04:05:41;51.521126;45.559616;62.186878;;
79288;Laerm;68737;53.946;27.634;2024-03-02T04:08:11;51.874969;44.766937;64.083054;;
79288;Laerm;68737;53.946;27.634;2024-03-02T04:10:41;52.187408;46.202232;63.388496;;
79288;Laerm;68737;53.946;27.634;2024-03-02T04:13:11;51.501495;45.923492;60.447544;;
79288;Laerm;68737;53.946;27.634;2024-03-02T04:15:41;50.601929;46.286797;58.829651;;
79288;Laerm;68737;53.946;27.634;2024-03-02T04:18:11;49.968071;45.487259;58.935776;;
79288;Laerm;68737;53.946;27.634;2024-03-02T04:20:41;52.470276;46.356400;63.325047;;
79288;Laerm;68737;53.946;27.634;2024-03-02T04:23:11;52.296257;47.774048;58.080154;;
79288;Laerm;68737;53.946;27.634;2024-03-02T04:25:41;54.090981;48.380859;65.252327;;
79288;Laerm;68737;53.946;27.634;2024-03-02T04:28:11;54.001183;48.674942;61.424931;;
79288;Laerm;68737;53.946;27.634;2024-03-02T04:30:41;53.159180;48.374664;60.258030;;
79288;Laerm;68737;53.946;27.634;2024-03-02T04:33:11;54.939095;49.411179;65.898056;;
79288;Laerm;68737;53.946;27.634;2024-03-02T04:35:41;57.429840;49.341675;66.161194;;
79288;Laerm;68737;53.946;27.634;2024-03-02T04:38:11;55.738121;51.425064;61.738449;;
79288;Laerm;68737;53.946;27.634;2024-03-02T04:40:42;57.003014;53.000931;63.710186;;
79288;Laerm;68737;53.946;27.634;2024-03-02T04:43:11;56.207642;50.874748;66.947929;;
79288;Laerm;68737;53.946;27.634;2024-03-02T04:45:41;55.359879;49.485497;68.286163;;
79288;Laerm;68737;53.946;27.634;2024-03-02T04:48:11;53.475967;48.921356;61.320099;;
79288;Laerm;68737;53.946;27.634;2024-03-02T04:50:41;56.693245;48.080826;71.288673;;
79288;Laerm;68737;53.946;27.634;2024-03-02T04:53:13;53.949570;49.356384;61.634933;;
79288;Laerm;68737;53.946;27.634;2024-03-02T04:55:41;53.542885;48.502251;71.123413;;
79288;Laerm;68737;53.946;27.634;2024-03-02T04:58:11;55.489243;49.737587;68.866013;;
79288;Laerm;68737;53.946;27.634;2024-03-02T05:00:41;57.474197;49.023087;66.521263;;
79288;Laerm;68737;53.946;27.634;2024-03-02T05:03:11;54.428383;48.776283;63.555695;;
79288;Laerm;68737;53.946;27.634;2024-03-02T05:05:41;56.084747;48.629967;80.040207;;
79288;Laerm;68737;53.946;27.634;2024-03-02T05:08:11;60.076180;48.815834;85.539360;;
79288;Laerm;68737;53.946;27.634;2024-03-02T05:10:41;55.372826;48.739296;70.325424;;
79288;Laerm;68737;53.946;27.634;2024-03-02T05:13:11;52.142387;48.479996;62.367508;;
79288;Laerm;68737;53.946;27.634;2024-03-02T05:15:41;55.274139;49.551941;61.261951;;
79288;Laerm;68737;53.946;27.634;2024-03-02T05:18:11;55.263603;51.185341;62.413372;;
79288;Laerm;68737;53.946;27.634;2024-03-02T05:20:41;54.545830;49.663818;63.563091;;
79288;Laerm;68737;53.946;27.634;2024-03-02T05:23:11;57.519760;50.318802;70.516960;;
79288;Laerm;68737;53.946;27.634;2024-03-02T05:25:41;58.235107;50.106621;74.149918;;
79288;Laerm;68737;53.946;27.634;2024-03-02T05:28:11;54.870239;49.598770;68.843681;;
79288;Laerm;68737;53.946;27.634;2024-03-02T05:30:42;55.724442;50.886093;66.140854;;
79288;Laerm;68737;53.946;27.634;2024-03-02T05:33:11;57.877762;50.328369;69.106262;;
79288;Laerm;68737;53.946;27.634;2024-03-02T05:35:41;55.604088;49.984322;71.924942;;
79288;Laerm;68737;53.946;27.634;2024-03-02T05:38:11;60.501034;51.554451;77.695808;;
79288;Laerm;68737;53.946;27.634;2024-03-02T05:40:41;58.464073;51.246010;68.674629;;
79288;Laerm;68737;53.946;27.634;2024-03-02T05:43:11;63.191734;52.651573;88.177032;;
79288;Laerm;68737;53.946;27.634;2024-03-02T05:45:41;56.221458;50.710205;63.210796;;
79288;Laerm;68737;53.946;27.634;2024-03-02T05:48:11;56.361168;51.408211;67.154396;;
79288;Laerm;68737;53.946;27.634;2024-03-02T05:50:41;55.110611;50.817902;62.158630;;
79288;Laerm;68737;53.946;27.634;2024-03-02T05:53:11;57.555389;51.224045;70.601219;;
79288;Laerm;68737;53.946;27.634;2024-03-02T05:55:41;55.628525;51.038055;63.724960;;
79288;Laerm;68737;53.946;27.634;2024-03-02T05:58:11;56.733017;51.278000;66.113770;;
79288;Laerm;68737;53.946;27.634;2024-03-02T06:00:41;56.503838;50.775383;64.660080;;
79288;Laerm;68737;53.946;27.634;2024-03-02T06:03:11;54.419670;50.813057;59.815536;;
79288;Laerm;68737;53.946;27.634;2024-03-02T06:05:41;55.888634;50.745773;69.338318;;
79288;Laerm;68737;53.946;27.634;2024-03-02T06:08:11;55.524750;50.308029;65.032608;;
79288;Laerm;68737;53.946;27.634;2024-03-02T06:10:41;54.698624;50.608887;61.025688;;
79288;Laerm;68737;53.946;27.634;2024-03-02T06:13:11;55.847656;50.648621;61.614487;;
79288;Laerm;68737;53.946;27.634;2024-03-02T06:15:41;55.065018;49.825089;62.661999;;
79288;Laerm;68737;53.946;27.634;2024-03-02T06:18:11;56.209290;50.641747;62.904663;;
79288;Laerm;68737;53.946;27.634;2024-03-02T06:20:41;55.854210;51.668121;66.140640;;
79288;Laerm;68737;53.946;27.634;2024-03-02T06:23:11;55.136879;51.257439;67.729843;;
79288;Laerm;68737;53.946;27.634;2024-03-02T06:25:41;55.502312;50.700104;65.969009;;
79288;Laerm;68737;53.946;27.634;2024-03-02T06:28:11;56.135742;51.511353;63.569881;;
79288;Laerm;68737;53.946;27.634;2024-03-02T06:30:41;57.065750;50.578140;66.726982;;
79288;Laerm;68737;53.946;27.634;2024-03-02T06:33:12;57.453094;50.679565;65.173874;;
79288;Laerm;68737;53.946;27.634;2024-03-02T06:35:41;56.510605;51.646362;65.627724;;
79288;Laerm;68737;53.946;27.634;2024-03-02T06:38:11;55.802780;51.305420;63.166874;;
79288;Laerm;68737;53.946;27.634;2024-03-02T06:40:41;58.982956;51.806160;67.340187;;
79288;Laerm;68737;53.946;27.634;2024-03-02T06:43:11;56.401505;50.962257;60.963333;;
79288;Laerm;68737;53.946;27.634;2024-03-02T06:45:41;57.027298;50.848648;67.738129;;
79288;Laerm;68737;53.946;27.634;2024-03-02T06:48:11;57.029442;51.616211;65.008713;;
79288;Laerm;68737;53.946;27.634;2024-03-02T06:50:41;57.442154;51.066605;68.149704;;
79288;Laerm;68737;53.946;27.634;2024-03-02T06:53:11;56.658707;51.763512;70.427597;;
79288;Laerm;68737;53.946;27.634;2024-03-02T06:55:41;57.550049;50.896660;66.332199;;
79288;Laerm;68737;53.946;27.634;2024-03-02T07:00:41;57.017227;51.332718;65.155998;;
79288;Laerm;68737;53.946;27.634;2024-03-02T07:03:11;56.953835;50.932632;66.316536;;
79288;Laerm;68737;53.946;27.634;2024-03-02T07:05:41;56.945183;50.779251;65.547394;;
79288;Laerm;68737;53.946;27.634;2024-03-02T07:08:11;56.157745;49.194603;65.426849;;
79288;Laerm;68737;53.946;27.634;2024-03-02T07:10:41;55.237747;50.144753;62.954216;;
79288;Laerm;68737;53.946;27.634;2024-03-02T07:13:11;56.778740;50.553070;67.683990;;
79288;Laerm;68737;53.946;27.634;2024-03-02T07:15:41;57.890457;51.642319;79.480507;;
79288;Laerm;68737;53.946;27.634;2024-03-02T07:18:11;57.756943;53.041672;69.757652;;
79288;Laerm;68737;53.946;27.634;2024-03-02T07:20:41;57.681641;51.298813;70.623901;;
79288;Laerm;68737;53.946;27.634;2024-03-02T07:23:11;57.356865;52.341515;64.565598;;
79288;Laerm;68737;53.946;27.634;2024-03-02T07:25:41;57.214622;51.570244;64.168449;;
79288;Laerm;68737;53.946;27.634;2024-03-02T07:28:11;56.728096;51.062668;64.713539;;
79288;Laerm;68737;53.946;27.634;2024-03-02T07:30:41;55.990669;51.556778;63.831829;;
79288;Laerm;68737;53.946;27.634;2024-03-02T07:33:11;56.750969;50.849281;63.379822;;
79288;Laerm;68737;53.946;27.634;2024-03-02T07:35:41;56.874237;50.997429;61.809837;;
79288;Laerm;68737;53.946;27.634;2024-03-02T07:38:11;56.321114;49.933220;65.685951;;
79288;Laerm;68737;53.946;27.634;2024-03-02T07:40:41;56.441551;50.471779;63.996948;;
79288;Laerm;68737;53.946;27.634;2024-03-02T07:43:11;56.301949;50.796387;71.900070;;
79288;Laerm;68737;53.946;27.634;2024-03-02T07:45:41;56.866600;51.354408;70.082863;;
79288;Laerm;68737;53.946;27.634;2024-03-02T07:48:11;56.319954;50.287331;67.424355;;
79288;Laerm;68737;53.946;27.634;2024-03-02T07:50:41;56.103767;50.367371;63.656662;;
79288;Laerm;68737;53.946;27.634;2024-03-02T07:53:11;57.859810;51.140892;78.634644;;
79288;Laerm;68737;53.946;27.634;2024-03-02T07:55:41;55.975403;50.682693;63.613651;;
79288;Laerm;68737;53.946;27.634;2024-03-02T07:58:11;56.799149;50.354652;67.496101;;
79288;Laerm;68737;53.946;27.634;2024-03-02T08:00:41;56.715179;50.246864;62.804291;;
79288;Laerm;68737;53.946;27.634;2024-03-02T08:03:11;57.442406;50.528351;72.829338;;
79288;Laerm;68737;53.946;27.634;2024-03-02T08:05:41;56.389481;50.440430;66.881828;;
79288;Laerm;68737;53.946;27.634;2024-03-02T08:08:11;56.942200;50.062317;65.809921;;
79288;Laerm;68737;53.946;27.634;2024-03-02T08:10:41;56.157455;50.512505;64.191895;;
79288;Laerm;68737;53.946;27.634;2024-03-02T08:13:11;55.752144;50.086800;66.296814;;
79288;Laerm;68737;53.946;27.634;2024-03-02T08:15:41;57.417488;50.869576;63.244659;;
79288;Laerm;68737;53.946;27.634;2024-03-02T08:18:11;57.561676;50.351044;70.944977;;
79288;Laerm;68737;53.946;27.634;2024-03-02T08:20:41;58.862045;51.451797;71.417343;;
79288;Laerm;68737;53.946;27.634;2024-03-02T08:23:11;56.901001;50.497299;66.258965;;
79288;Laerm;68737;53.946;27.634;2024-03-02T08:25:41;56.704178;49.312210;64.076202;;
79288;Laerm;68737;53.946;27.634;2024-03-02T08:28:11;56.075768;48.501564;67.636505;;
79288;Laerm;68737;53.946;27.634;2024-03-02T08:30:41;57.812775;51.334396;74.016068;;
79288;Laerm;68737;53.946;27.634;2024-03-02T08:33:11;58.071327;50.125816;77.719223;;
79288;Laerm;68737;53.946;27.634;2024-03-02T08:35:41;56.455597;49.810143;69.716278;;
79288;Laerm;68737;53.946;27.634;2024-03-02T08:38:11;57.448982;50.493095;71.717720;;
79288;Laerm;68737;53.946;27.634;2024-03-02T08:40:41;56.095085;49.801010;63.821831;;
79288;Laerm;68737;53.946;27.634;2024-03-02T08:43:11;55.967987;50.081696;62.560974;;
79288;Laerm;68737;53.946;27.634;2024-03-02T08:45:41;56.801964;50.593552;76.028641;;
79288;Laerm;68737;53.946;27.634;2024-03-02T08:48:11;58.129585;49.694893;70.573593;;
79288;Laerm;68737;53.946;27.634;2024-03-02T08:50:41;56.784386;51.035973;64.943970;;
79288;Laerm;68737;53.946;27.634;2024-03-02T08:53:11;58.340202;52.486572;66.187775;;
79288;Laerm;68737;53.946;27.634;2024-03-02T08:55:41;56.979591;51.039490;65.670303;;
79288;Laerm;68737;53.946;27.634;2024-03-02T08:58:11;58.328026;51.159584;67.624718;;
79288;Laerm;68737;53.946;27.634;2024-03-02T09:00:41;57.732979;52.619682;67.719376;;
79288;Laerm;68737;53.946;27.634;2024-03-02T09:03:11;59.761681;51.242653;71.114128;;
79288;Laerm;68737;53.946;27.634;2024-03-02T09:05:41;57.733917;50.791321;66.047638;;
79288;Laerm;68737;53.946;27.634;2024-03-02T09:08:11;59.470791;52.809387;70.481079;;
79288;Laerm;68737;53.946;27.634;2024-03-02T09:10:41;58.084061;50.280518;70.711639;;
79288;Laerm;68737;53.946;27.634;2024-03-02T09:13:11;57.966576;51.916519;65.749901;;
79288;Laerm;68737;53.946;27.634;2024-03-02T09:15:41;57.372566;52.110168;64.901649;;
79288;Laerm;68737;53.946;27.634;2024-03-02T09:18:11;56.693886;50.024063;65.866905;;
79288;Laerm;68737;53.946;27.634;2024-03-02T09:20:41;59.560043;51.817627;72.400635;;
79288;Laerm;68737;53.946;27.634;2024-03-02T09:23:11;57.813385;50.319649;68.058067;;
79288;Laerm;68737;53.946;27.634;2024-03-02T09:25:41;56.401451;50.870338;64.902924;;
79288;Laerm;68737;53.946;27.634;2024-03-02T09:28:11;56.343971;50.584213;65.518661;;
79288;Laerm;68737;53.946;27.634;2024-03-02T09:30:41;57.094376;49.497551;67.500290;;
79288;Laerm;68737;53.946;27.634;2024-03-02T09:33:11;57.237335;50.942688;63.859726;;
79288;Laerm;68737;53.946;27.634;2024-03-02T09:35:41;57.590050;49.477196;72.517876;;
79288;Laerm;68737;53.946;27.634;2024-03-02T09:38:11;61.737965;49.551804;80.330551;;
79288;Laerm;68737;53.946;27.634;2024-03-02T09:40:41;59.138203;50.651505;73.125763;;
79288;Laerm;68737;53.946;27.634;2024-03-02T09:43:11;56.879021;50.843941;68.178909;;
79288;Laerm;68737;53.946;27.634;2024-03-02T09:45:41;55.878464;49.947411;65.448158;;
79288;Laerm;68737;53.946;27.634;2024-03-02T09:48:11;56.292694;50.140327;63.579834;;
79288;Laerm;68737;53.946;27.634;2024-03-02T09:50:41;57.038574;51.667290;62.962124;;
79288;Laerm;68737;53.946;27.634;2024-03-02T09:53:11;57.127586;50.940224;65.327370;;
79288;Laerm;68737;53.946;27.634;2024-03-02T09:55:41;57.210159;50.419724;69.278107;;
79288;Laerm;68737;53.946;27.634;2024-03-02T09:58:11;57.785370;50.348824;70.637039;;
79288;Laerm;68737;53.946;27.634;2024-03-02T10:00:41;56.113014;50.181366;62.246181;;
79288;Laerm;68737;53.946;27.634;2024-03-02T10:05:40;57.786171;51.665649;67.396187;;
79288;Laerm;68737;53.946;27.634;2024-03-02T10:08:11;57.033073;50.446121;67.530914;;
79288;Laerm;68737;53.946;27.634;2024-03-02T10:10:41;57.010139;49.276337;65.936661;;
79288;Laerm;68737;53.946;27.634;2024-03-02T10:13:11;55.361931;49.039307;62.217087;;
79288;Laerm;68737;53.946;27.634;2024-03-02T10:15:41;57.441345;51.280182;64.256599;;
79288;Laerm;68737;53.946;27.634;2024-03-02T10:18:11;57.926765;51.529922;68.781296;;
79288;Laerm;68737;53.946;27.634;2024-03-02T10:20:41;57.067932;50.606071;68.314087;;
79288;Laerm;68737;53.946;27.634;2024-03-02T10:23:11;57.574059;50.833031;66.879395;;
79288;Laerm;68737;53.946;27.634;2024-03-02T10:25:41;55.471558;48.646149;65.146606;;
79288;Laerm;68737;53.946;27.634;2024-03-02T10:28:10;56.194336;49.936218;67.753952;;
79288;Laerm;68737;53.946;27.634;2024-03-02T10:30:40;59.130589;51.281998;71.298828;;
79288;Laerm;68737;53.946;27.634;2024-03-02T10:33:10;56.740662;49.832230;70.347481;;
79288;Laerm;68737;53.946;27.634;2024-03-02T10:35:40;57.542503;48.932358;73.979752;;
79288;Laerm;68737;53.946;27.634;2024-03-02T10:38:11;56.907974;48.426956;74.175240;;
79288;Laerm;68737;53.946;27.634;2024-03-02T10:40:40;57.071915;49.989891;66.309158;;
79288;Laerm;68737;53.946;27.634;2024-03-02T10:43:10;56.121101;49.799576;63.544506;;
79288;Laerm;68737;53.946;27.634;2024-03-02T10:45:40;55.509613;49.195480;65.532310;;
79288;Laerm;68737;53.946;27.634;2024-03-02T10:48:10;55.846222;47.937668;77.281281;;
79288;Laerm;68737;53.946;27.634;2024-03-02T10:50:41;59.451736;49.899628;72.787086;;
79288;Laerm;68737;53.946;27.634;2024-03-02T10:53:10;57.744492;49.050491;69.473053;;
79288;Laerm;68737;53.946;27.634;2024-03-02T10:55:40;56.516808;48.326576;66.985573;;
79288;Laerm;68737;53.946;27.634;2024-03-02T10:58:11;57.142578;49.542610;69.876762;;
79288;Laerm;68737;53.946;27.634;2024-03-02T11:00:40;58.390999;49.825569;73.533752;;
79288;Laerm;68737;53.946;27.634;2024-03-02T11:03:10;56.892471;50.498032;70.757149;;
79288;Laerm;68737;53.946;27.634;2024-03-02T11:05:44;57.925659;50.889580;68.183243;;
79288;Laerm;68737;53.946;27.634;2024-03-02T11:10:42;55.835449;49.392189;64.225136;;
79288;Laerm;68737;53.946;27.634;2024-03-02T11:13:11;56.534866;49.100037;64.347397;;
79288;Laerm;68737;53.946;27.634;2024-03-02T11:15:41;55.868561;48.819221;65.056641;;
79288;Laerm;68737;53.946;27.634;2024-03-02T11:18:10;56.267906;50.308212;66.160980;;
79288;Laerm;68737;53.946;27.634;2024-03-02T11:20:40;55.748146;48.329582;64.428146;;
79288;Laerm;68737;53.946;27.634;2024-03-02T11:23:10;55.570663;48.902412;63.686981;;
79288;Laerm;68737;53.946;27.634;2024-03-02T11:25:40;57.055031;48.219299;79.142151;;
79288;Laerm;68737;53.946;27.634;2024-03-02T11:28:10;55.794510;50.131157;62.661274;;
79288;Laerm;68737;53.946;27.634;2024-03-02T11:33:10;55.721512;49.275658;63.891438;;
79288;Laerm;68737;53.946;27.634;2024-03-02T11:35:41;56.553513;48.817871;68.285759;;
79288;Laerm;68737;53.946;27.634;2024-03-02T11:38:12;55.017525;48.465309;63.660061;;
79288;Laerm;68737;53.946;27.634;2024-03-02T11:40:41;56.273560;48.782921;66.133469;;
79288;Laerm;68737;53.946;27.634;2024-03-02T11:43:10;54.564056;47.656242;65.801094;;
79288;Laerm;68737;53.946;27.634;2024-03-02T11:45:41;57.742897;48.684547;70.156799;;
79288;Laerm;68737;53.946;27.634;2024-03-02T11:48:13;56.980843;48.584160;64.902130;;
79288;Laerm;68737;53.946;27.634;2024-03-02T11:53:10;56.411469;51.276871;62.659901;;
79288;Laerm;68737;53.946;27.634;2024-03-02T11:55:40;56.535851;50.232498;68.346069;;
79288;Laerm;68737;53.946;27.634;2024-03-02T11:58:10;55.340851;49.981339;61.502930;;
79288;Laerm;68737;53.946;27.634;2024-03-02T12:00:40;58.061935;50.153290;75.183151;;
79288;Laerm;68737;53.946;27.634;2024-03-02T12:03:12;56.689178;50.001450;71.925446;;
79288;Laerm;68737;53.946;27.634;2024-03-02T12:05:40;58.012222;50.141144;66.625610;;
79288;Laerm;68737;53.946;27.634;2024-03-02T12:08:10;58.237999;49.760437;68.049393;;
79288;Laerm;68737;53.946;27.634;2024-03-02T12:10:40;57.244232;49.488655;65.373566;;